ADDS METAR Data INFO
IDs: Format: Raw Decoded Include TAF

Data at: 0113 UTC 21 Oct 2017

KSYM 210050Z AUTO 00000KT 10SM CLR 19/10 A3023 RMK AO2
KSYM 210030Z AUTO 12003KT 10SM CLR 20/10 A3023 RMK AO2
KSYM 210010Z AUTO 10003KT 10SM CLR 20/10 A3024 RMK AO2
KSYM 202350Z AUTO 00000KT 10SM CLR 20/11 A3023 RMK AO2
KSYM 202330Z AUTO 11003KT 10SM CLR 20/11 A3023 RMK AO2
KSYM 202310Z AUTO 12004KT 10SM CLR 20/12 A3023 RMK AO2
KSYM 202250Z AUTO 00000KT 10SM CLR 19/13 A3023 RMK AO2
KSYM 202230Z AUTO 00000KT 10SM CLR 21/12 A3023 RMK AO2
KSYM 202210Z AUTO 00000KT 10SM CLR 22/12 A3023 RMK AO2
KSYM 202150Z AUTO 00000KT 10SM CLR 23/12 A3023 RMK AO2
KSYM 202130Z AUTO 00000KT 10SM CLR 23/12 A3023 RMK AO2
KSYM 202110Z AUTO 00000KT 10SM CLR 24/12 A3023 RMK AO2
KSYM 202050Z AUTO VRB03KT 10SM CLR 24/11 A3023 RMK AO2
KSYM 202030Z AUTO VRB04KT 10SM CLR 24/11 A3024 RMK AO2
KSYM 202010Z AUTO VRB03KT 10SM CLR 24/10 A3024 RMK AO2
KSYM 201950Z AUTO 00000KT 10SM CLR 24/10 A3025 RMK AO2
KSYM 201930Z AUTO 00000KT 10SM CLR 23/10 A3026 RMK AO2
KSYM 201910Z AUTO 00000KT 10SM CLR 23/10 A3026 RMK AO2
KSYM 201850Z AUTO 13004KT 10SM CLR 23/10 A3027 RMK AO2
KSYM 201830Z AUTO 00000KT 10SM CLR 23/10 A3027 RMK AO2
KSYM 201810Z AUTO VRB03KT 10SM CLR 23/10 A3028 RMK AO2
KSYM 201750Z AUTO VRB04KT 10SM CLR 22/10 A3029 RMK AO2
KSYM 201730Z AUTO 12004KT 10SM CLR 22/11 A3031 RMK AO2
KSYM 201710Z AUTO 00000KT 10SM CLR 22/11 A3032 RMK AO2
KSYM 201650Z AUTO 00000KT 10SM CLR 21/11 A3033 RMK AO2
KSYM 201630Z AUTO 00000KT 10SM CLR 21/11 A3033 RMK AO2
KSYM 201610Z AUTO 00000KT 10SM CLR 21/11 A3034 RMK AO2
KSYM 201550Z AUTO 00000KT 10SM CLR 20/10 A3035 RMK AO2
KSYM 201530Z AUTO 00000KT 10SM CLR 19/10 A3035 RMK AO2
KSYM 201510Z AUTO 00000KT 10SM CLR 18/11 A3036 RMK AO2
KSYM 201450Z AUTO 00000KT 10SM CLR 17/11 A3036 RMK AO2
KSYM 201430Z AUTO 00000KT 10SM CLR 16/11 A3036 RMK AO2
KSYM 201410Z AUTO 00000KT 10SM CLR 14/11 A3036 RMK AO2
KSYM 201350Z AUTO 00000KT 10SM CLR 13/12 A3035 RMK AO2
KSYM 201330Z AUTO 00000KT 10SM CLR 12/11 A3035 RMK AO2
KSYM 201310Z AUTO 00000KT 10SM CLR 11/10 A3035 RMK AO2
KSYM 201250Z AUTO 19003KT 5SM BR CLR 10/09 A3034 RMK AO2
KSYM 201230Z AUTO 16003KT 4SM BR CLR 09/09 A3033 RMK AO2
KSYM 201210Z AUTO 00000KT 1 1/2SM BR CLR 09/08 A3033 RMK AO2 VIS 1V3
KSYM 201150Z AUTO 00000KT 2SM BR CLR 08/08 A3033 RMK AO2
KSYM 201130Z AUTO 18003KT 4SM BR CLR 09/08 A3032 RMK AO2
KSYM 201110Z AUTO 00000KT 7SM CLR 09/09 A3032 RMK AO2
KSYM 201050Z AUTO 00000KT 3SM BR CLR 09/08 A3031 RMK AO2
KSYM 201030Z AUTO 17003KT 4SM BR CLR 09/08 A3031 RMK AO2
KSYM 201010Z AUTO 00000KT 2 1/2SM BR CLR 09/08 A3030 RMK AO2
KSYM 200950Z AUTO 00000KT 5SM BR CLR 10/09 A3030 RMK AO2
KSYM 200930Z AUTO 00000KT 3SM BR CLR 09/08 A3029 RMK AO2
KSYM 200910Z AUTO 00000KT 9SM CLR 10/09 A3029 RMK AO2
KSYM 200850Z AUTO 00000KT 5SM BR FEW037 FEW045 10/09 A3029 RMK AO2
KSYM 200830Z AUTO 00000KT 8SM FEW034 FEW042 10/09 A3028 RMK AO2
KSYM 200810Z AUTO 00000KT 10SM CLR 11/10 A3028 RMK AO2
KSYM 200750Z AUTO 00000KT 9SM CLR 10/09 A3028 RMK AO2
KSYM 200730Z AUTO 00000KT 3SM BR FEW032 FEW044 10/09 A3028 RMK AO2
KSYM 200710Z AUTO 00000KT 9SM FEW030 FEW036 10/09 A3028 RMK AO2
KSYM 200650Z AUTO 00000KT 7SM FEW030 10/09 A3028 RMK AO2
KSYM 200630Z AUTO 00000KT 7SM FEW026 FEW034 10/09 A3028 RMK AO2
KSYM 200610Z AUTO 00000KT 10SM FEW027 FEW034 FEW040 11/10 A3027 RMK AO2
KSYM 200550Z AUTO 00000KT 8SM CLR 10/09 A3028 RMK AO2
KSYM 200530Z AUTO 17003KT 9SM CLR 10/09 A3028 RMK AO2
KSYM 200510Z AUTO 00000KT 10SM CLR 11/10 A3028 RMK AO2
KSYM 200450Z AUTO 18004KT 10SM CLR 10/09 A3028 RMK AO2
KSYM 200430Z AUTO 18005KT 10SM CLR 10/09 A3027 RMK AO2
KSYM 200410Z AUTO 18005KT 10SM CLR 10/09 A3027 RMK AO2
KSYM 200350Z AUTO 17004KT 10SM CLR 10/09 A3028 RMK AO2
KSYM 200330Z AUTO 18005KT 10SM CLR 11/09 A3028 RMK AO2
KSYM 200310Z AUTO 19004KT 10SM CLR 11/09 A3028 RMK AO2
KSYM 200250Z AUTO 22003KT 10SM CLR 12/09 A3027 RMK AO2
KSYM 200230Z AUTO 00000KT 10SM CLR 13/09 A3027 RMK AO2
KSYM 200210Z AUTO 19003KT 10SM CLR 13/09 A3027 RMK AO2
KSYM 200150Z AUTO 18004KT 10SM CLR 13/09 A3026 RMK AO2
KSYM 200130Z AUTO 19003KT 10SM CLR 13/09 A3026 RMK AO2
KSYM 200110Z AUTO 20003KT 10SM CLR 15/08 A3026 RMK AO2
KSYM 200050Z AUTO 23003KT 10SM CLR 17/08 A3026 RMK AO2
KSYM 200030Z AUTO 24004KT 10SM CLR 17/08 A3026 RMK AO2
KSYM 200010Z AUTO 23004KT 10SM CLR 17/08 A3026 RMK AO2
KSYM 192350Z AUTO 23005KT 10SM CLR 17/08 A3026 RMK AO2
KSYM 192330Z AUTO 24004KT 10SM CLR 17/08 A3025 RMK AO2
KSYM 192310Z AUTO 23005KT 10SM CLR 18/08 A3025 RMK AO2
KSYM 192250Z AUTO 22004KT 10SM CLR 17/09 A3025 RMK AO2
KSYM 192230Z AUTO 23005KT 10SM CLR 19/08 A3025 RMK AO2
KSYM 192210Z AUTO 22005KT 10SM CLR 20/08 A3025 RMK AO2
KSYM 192150Z AUTO 22006KT 10SM CLR 21/08 A3025 RMK AO2
KSYM 192130Z AUTO 23004KT 10SM CLR 21/08 A3025 RMK AO2
KSYM 192110Z AUTO 23008KT 10SM CLR 21/08 A3024 RMK AO2
KSYM 192050Z AUTO 23006KT 10SM CLR 22/08 A3025 RMK AO2
KSYM 192030Z AUTO 23007KT 10SM CLR 21/08 A3025 RMK AO2
KSYM 192010Z AUTO 22007G13KT 10SM CLR 21/08 A3025 RMK AO2
KSYM 191950Z AUTO 22009G16KT 180V240 10SM CLR 22/08 A3025 RMK AO2
KSYM 191930Z AUTO 20009KT 10SM CLR 21/08 A3025 RMK AO2
KSYM 191910Z AUTO VRB05G13KT 10SM CLR 22/08 A3026 RMK AO2
KSYM 191850Z AUTO 24007G13KT 220V290 10SM CLR 21/08 A3026 RMK AO2
KSYM 191830Z AUTO 22010KT 10SM CLR 21/08 A3027 RMK AO2
KSYM 191755Z AUTO 21008G13KT 10SM CLR 21/09 A3028 RMK AO2
KSYM 191730Z AUTO 24009KT 10SM CLR 20/09 A3029 RMK AO2
KSYM 191710Z AUTO 23008KT 10SM CLR 20/08 A3031 RMK AO2
KSYM 191650Z AUTO 22008KT 10SM CLR 20/08 A3031 RMK AO2
KSYM 191630Z AUTO 26006G13KT 10SM CLR 19/08 A3032 RMK AO2
KSYM 191610Z AUTO 24008KT 10SM CLR 19/08 A3032 RMK AO2
KSYM 191550Z AUTO 25007KT CLR 19/08 A3033 RMK AO2 P0008
KSYM 191530Z AUTO 24007G13KT 2 1/2SM HZ CLR 18/09 A3033 RMK AO2
KSYM 191510Z AUTO 23007KT 10SM CLR 16/09 A3033 RMK AO2
KSYM 191450Z AUTO 22008KT 10SM CLR 16/09 A3032 RMK AO2
KSYM 191430Z AUTO 24009KT 10SM CLR 15/08 A3032 RMK AO2
KSYM 191410Z AUTO 22007G14KT 10SM CLR 15/08 A3032 RMK AO2
KSYM 191350Z AUTO 21008KT 10SM CLR 14/08 A3032 RMK AO2
KSYM 191330Z AUTO 21007G12KT 10SM CLR 13/08 A3031 RMK AO2